BBC Polonia — V2EZ6 — position and weather

sailwx.info

Track history (hours):
 
Tides and Currents Weather Stations Pressure Air Temp Water Temp Dewpoint Dewpoint Depression Visibility Wind Speed Wind Dir Waves Ship Positions

BBC Polonia

Last reported at 2016-Sep-10 04:25 UTC. Time now 2016-Sep-28 08:39 UTC.
Position N 48°30' W 126°00'.
Warning: this ship's position is 18 days out of date.

Length 123 m; draft 5.9 m.

Type: Cargo ship. MMSI: 305614000.

Date/timePositionNaut miles runAvg speedWind from/ knotsBaromVisibWave heightAir tempDewpointWater temp
2016-Sep-10 04:25N 48°30' W 126°00'1011.7
2016-Sep-10 03:33N 48°30' W 125°45'1111.4
2016-Sep-10 02:33N 48°31' W 125°28'1212.0
2016-Sep-10 01:33N 48°31' W 125°10'1111.5
2016-Sep-10 00:33N 48°31' W 124°53'1111.2
2016-Sep-09 23:33N 48°29' W 124°36'1212.1
2016-Sep-09 22:33N 48°24' W 124°19'1111.3
2016-Sep-09 21:33N 48°20' W 124°03'1211.5
2016-Sep-09 20:33N 48°17' W 123°46'9 9.4
2016-Sep-09 19:33N 48°16' W 123°33'9 8.9
2016-Sep-09 18:33N 48°23' W 123°25'2 1.7
2016-Sep-09 17:25N 48°25' W 123°23'0 0.0
2016-Sep-09 16:31N 48°25' W 123°23'0 0.0
2016-Sep-09 12:07N 48°25' W 123°23'0 0.0
2016-Sep-09 10:19N 48°25' W 123°23'0 0.0
2016-Sep-09 07:05N 48°25' W 123°23'0 0.0
2016-Sep-09 06:29N 48°25' W 123°23'0 0.0
2016-Sep-09 04:26N 48°25' W 123°23'0 0.0
2016-Sep-09 01:31N 48°25' W 123°23'0 0.0
2016-Sep-09 00:08N 48°25' W 123°23'0 0.0
2016-Sep-08 23:05N 48°25' W 123°23'0 0.0
2016-Sep-08 19:14N 48°25' W 123°23'0 0.0
2016-Sep-08 16:29N 48°25' W 123°23'0 0.0
2016-Sep-08 11:07N 48°25' W 123°23'0 0.4
2016-Sep-08 10:33N 48°25' W 123°24'6 5.6
2016-Sep-08 09:33N 48°19' W 123°25'7 7.4
2016-Sep-08 08:33N 48°12' W 123°26'4 3.8
2016-Sep-08 07:28N 48°08' W 123°27'0 0.0
2016-Sep-08 06:28N 48°08' W 123°27'0 0.0
2016-Sep-08 05:31N 48°08' W 123°27'0 0.1
2016-Sep-08 04:31N 48°08' W 123°27'0 0.1
2016-Sep-08 03:22N 48°08' W 123°27'0 0.0
2016-Sep-08 02:28N 48°08' W 123°27'0 0.1
2016-Sep-08 01:07N 48°08' W 123°27'3 5.9
2016-Sep-08 00:33N 48°10' W 123°22'10 9.6
2016-Sep-07 23:31N 48°13' W 123°37'1211.7
2016-Sep-07 22:30N 48°13' W 123°54'1212.3
2016-Sep-07 21:33N 48°18' W 124°11'1211.7
2016-Sep-07 20:33N 48°23' W 124°26'1211.6
2016-Sep-07 19:34N 48°28' W 124°42'1311.8
2016-Sep-07 18:30N 48°27' W 125°01'1212.1
2016-Sep-07 17:32N 48°19' W 125°14'  
2016-Sep-03 06:33N 31°24' W 122°53'52 9.6
2016-Sep-03 01:06N 30°48' W 122°09'15010.1
2016-Sep-02 10:13N 30°59' W 119°14'1810.8
2016-Sep-02 08:30N 31°03' W 118°53'9810.9
2016-Sep-01 23:30N 31°39' W 117°06'1211.2
2016-Sep-01 22:27N 31°44' W 116°53'9 0.6
2016-Sep-01 07:07N 31°47' W 116°44'610.4
2016-Sep-01 06:33N 31°43' W 116°49'1211.8
2016-Sep-01 05:33N 31°32' W 116°47'1111.5
2016-Sep-01 04:33N 31°20' W 116°44'1111.3
2016-Sep-01 03:33N 31°10' W 116°40'1211.6
2016-Sep-01 02:33N 30°58' W 116°37'  
Track history (hours):
 
Tides and Currents Weather Stations Pressure Air Temp Water Temp Dewpoint Dewpoint Depression Visibility Wind Speed Wind Dir Waves Ship Positions

BBC Polonia

Last reported at 2016-Sep-10 04:25 UTC. Time now 2016-Sep-28 08:39 UTC.
Position N 48°30' W 126°00'.
Warning: this ship's position is 18 days out of date.

Length 123 m; draft 5.9 m.

Type: Cargo ship. MMSI: 305614000.

Date/timePositionNaut miles runAvg speedWind from/ knotsBaromVisibWave heightAir tempDewpointWater temp
2016-Sep-10 04:25N 48°30' W 126°00'1011.7
2016-Sep-10 03:33N 48°30' W 125°45'1111.4
2016-Sep-10 02:33N 48°31' W 125°28'1212.0
2016-Sep-10 01:33N 48°31' W 125°10'1111.5
2016-Sep-10 00:33N 48°31' W 124°53'1111.2
2016-Sep-09 23:33N 48°29' W 124°36'1212.1
2016-Sep-09 22:33N 48°24' W 124°19'1111.3
2016-Sep-09 21:33N 48°20' W 124°03'1211.5
2016-Sep-09 20:33N 48°17' W 123°46'9 9.4
2016-Sep-09 19:33N 48°16' W 123°33'9 8.9
2016-Sep-09 18:33N 48°23' W 123°25'2 1.7
2016-Sep-09 17:25N 48°25' W 123°23'0 0.0
2016-Sep-09 16:31N 48°25' W 123°23'0 0.0
2016-Sep-09 12:07N 48°25' W 123°23'0 0.0
2016-Sep-09 10:19N 48°25' W 123°23'0 0.0
2016-Sep-09 07:05N 48°25' W 123°23'0 0.0
2016-Sep-09 06:29N 48°25' W 123°23'0 0.0
2016-Sep-09 04:26N 48°25' W 123°23'0 0.0
2016-Sep-09 01:31N 48°25' W 123°23'0 0.0
2016-Sep-09 00:08N 48°25' W 123°23'0 0.0
2016-Sep-08 23:05N 48°25' W 123°23'0 0.0
2016-Sep-08 19:14N 48°25' W 123°23'0 0.0
2016-Sep-08 16:29N 48°25' W 123°23'0 0.0
2016-Sep-08 11:07N 48°25' W 123°23'0 0.4
2016-Sep-08 10:33N 48°25' W 123°24'6 5.6
2016-Sep-08 09:33N 48°19' W 123°25'7 7.4
2016-Sep-08 08:33N 48°12' W 123°26'4 3.8
2016-Sep-08 07:28N 48°08' W 123°27'0 0.0
2016-Sep-08 06:28N 48°08' W 123°27'0 0.0
2016-Sep-08 05:31N 48°08' W 123°27'0 0.1
2016-Sep-08 04:31N 48°08' W 123°27'0 0.1
2016-Sep-08 03:22N 48°08' W 123°27'0 0.0
2016-Sep-08 02:28N 48°08' W 123°27'0 0.1
2016-Sep-08 01:07N 48°08' W 123°27'3 5.9
2016-Sep-08 00:33N 48°10' W 123°22'10 9.6
2016-Sep-07 23:31N 48°13' W 123°37'1211.7
2016-Sep-07 22:30N 48°13' W 123°54'1212.3
2016-Sep-07 21:33N 48°18' W 124°11'1211.7
2016-Sep-07 20:33N 48°23' W 124°26'1211.6
2016-Sep-07 19:34N 48°28' W 124°42'1311.8
2016-Sep-07 18:30N 48°27' W 125°01'1212.1
2016-Sep-07 17:32N 48°19' W 125°14'  
2016-Sep-03 06:33N 31°24' W 122°53'52 9.6
2016-Sep-03 01:06N 30°48' W 122°09'15010.1
2016-Sep-02 10:13N 30°59' W 119°14'1810.8
2016-Sep-02 08:30N 31°03' W 118°53'9810.9
2016-Sep-01 23:30N 31°39' W 117°06'1211.2
2016-Sep-01 22:27N 31°44' W 116°53'9 0.6
2016-Sep-01 07:07N 31°47' W 116°44'610.4
2016-Sep-01 06:33N 31°43' W 116°49'1211.8
2016-Sep-01 05:33N 31°32' W 116°47'1111.5
2016-Sep-01 04:33N 31°20' W 116°44'1111.3
2016-Sep-01 03:33N 31°10' W 116°40'1211.6
2016-Sep-01 02:33N 30°58' W 116°37'  

Dump ship's entire track history